createdAt,value
2018-03-19T00:00:06.753Z,10.10
2018-03-19T00:02:34.330Z,10.93
2018-03-19T00:05:01.939Z,7.57
2018-03-19T00:07:30.018Z,7.03
2018-03-19T00:09:57.604Z,8.40
2018-03-19T00:12:25.187Z,7.33
2018-03-19T00:14:52.743Z,5.17
2018-03-19T00:17:20.347Z,8.50
2018-03-19T00:19:47.892Z,13.63
2018-03-19T00:22:15.530Z,12.53
2018-03-19T00:24:44.015Z,9.63
2018-03-19T00:27:12.343Z,6.77
2018-03-19T00:29:39.924Z,9.53
2018-03-19T00:32:07.841Z,7.70
2018-03-19T00:34:35.407Z,12.30
2018-03-19T00:37:03.077Z,11.20
2018-03-19T00:39:30.939Z,12.63
2018-03-19T00:41:58.494Z,9.07
2018-03-19T00:44:26.409Z,7.90
2018-03-19T00:46:53.994Z,11.37
2018-03-19T00:49:22.326Z,8.93
2018-03-19T00:51:49.890Z,6.83
2018-03-19T00:54:17.661Z,7.10
2018-03-19T00:56:45.263Z,8.87
2018-03-19T00:59:13.617Z,7.57
2018-03-19T01:01:41.184Z,9.17
2018-03-19T01:04:09.522Z,13.47
2018-03-19T01:06:37.112Z,6.50
2018-03-19T01:09:04.696Z,7.70
2018-03-19T01:11:32.330Z,13.63
2018-03-19T01:14:00.961Z,7.60
2018-03-19T01:16:28.530Z,7.73
2018-03-19T01:18:56.100Z,7.30
2018-03-19T01:21:23.959Z,6.47
2018-03-19T01:23:51.957Z,9.43
2018-03-19T01:26:19.506Z,10.07
2018-03-19T01:28:47.097Z,8.67
2018-03-19T01:31:15.428Z,7.40
2018-03-19T01:33:43.066Z,7.40
2018-03-19T01:36:10.843Z,7.90
2018-03-19T01:38:38.400Z,6.87
2018-03-19T01:41:05.961Z,8.13
2018-03-19T01:43:33.558Z,7.77
2018-03-19T01:46:01.164Z,8.93
2018-03-19T01:48:28.724Z,9.50
2018-03-19T01:50:56.583Z,9.70
2018-03-19T01:53:24.142Z,8.33
2018-03-19T01:55:51.711Z,15.03
2018-03-19T01:58:19.599Z,6.73
2018-03-19T02:00:47.167Z,8.07
2018-03-19T02:03:14.734Z,9.13
2018-03-19T02:05:42.348Z,11.00
2018-03-19T02:08:09.909Z,9.03
2018-03-19T02:10:37.469Z,10.40
2018-03-19T02:13:05.049Z,7.77
2018-03-19T02:15:32.626Z,6.80
2018-03-19T02:18:00.225Z,13.87
2018-03-19T02:20:28.143Z,9.30
2018-03-19T02:22:55.698Z,6.63
2018-03-19T02:25:23.251Z,8.00
2018-03-19T02:27:50.851Z,7.40
2018-03-19T02:30:19.198Z,9.30
2018-03-19T02:32:46.763Z,8.53
2018-03-19T02:35:14.724Z,11.47
2018-03-19T02:37:42.308Z,9.10
2018-03-19T02:40:10.636Z,8.60
2018-03-19T02:42:38.525Z,8.17
2018-03-19T02:45:06.122Z,16.13
2018-03-19T02:47:34.461Z,12.40
2018-03-19T02:50:02.129Z,14.60
2018-03-19T02:52:29.709Z,9.00
2018-03-19T02:54:58.055Z,10.20
2018-03-19T02:57:25.790Z,9.93
2018-03-19T02:59:53.367Z,14.03
2018-03-19T03:02:20.934Z,10.20
2018-03-19T03:04:48.535Z,22.93
2018-03-19T03:07:16.887Z,13.70
2018-03-19T03:09:44.459Z,8.00
2018-03-19T03:12:12.831Z,9.03
2018-03-19T03:14:42.819Z,7.60
2018-03-19T03:17:10.418Z,9.47
2018-03-19T03:19:38.763Z,10.80
2018-03-19T03:22:06.402Z,12.43
2018-03-19T03:24:33.968Z,9.93
2018-03-19T03:27:01.552Z,15.77
2018-03-19T03:29:30.652Z,9.57
2018-03-19T03:31:58.363Z,11.40
2018-03-19T03:34:25.923Z,8.67
2018-03-19T03:36:53.532Z,10.93
2018-03-19T03:39:21.115Z,11.70
2018-03-19T03:41:49.445Z,11.40
2018-03-19T03:44:17.332Z,7.83
2018-03-19T03:46:44.918Z,8.07
2018-03-19T03:49:13.259Z,20.60
2018-03-19T03:51:40.845Z,9.63
2018-03-19T03:54:09.172Z,8.23
2018-03-19T03:56:36.745Z,9.70
2018-03-19T03:59:04.397Z,9.97
2018-03-19T04:01:31.952Z,7.93
2018-03-19T04:03:59.519Z,13.93
2018-03-19T04:06:27.147Z,9.93
2018-03-19T04:08:54.719Z,9.43
2018-03-19T04:11:22.301Z,8.73
2018-03-19T04:13:49.908Z,9.83
2018-03-19T04:16:18.243Z,11.37
2018-03-19T04:18:45.855Z,11.77
2018-03-19T04:21:13.445Z,11.93
2018-03-19T04:23:41.011Z,10.00
2018-03-19T04:26:08.605Z,11.00
2018-03-19T04:28:36.985Z,9.43
2018-03-19T04:31:05.320Z,9.10
2018-03-19T04:33:32.909Z,11.87
2018-03-19T04:36:00.921Z,11.33
2018-03-19T04:38:28.526Z,10.00
2018-03-19T04:40:56.091Z,10.63
2018-03-19T04:43:23.943Z,12.80
2018-03-19T04:45:51.516Z,9.57
2018-03-19T04:48:19.086Z,10.53
2018-03-19T04:50:46.694Z,9.70
2018-03-19T04:53:14.593Z,9.40
2018-03-19T04:55:42.170Z,9.70
2018-03-19T04:58:09.809Z,10.80
2018-03-19T05:00:37.427Z,12.23
2018-03-19T05:03:04.993Z,11.13
2018-03-19T05:05:32.557Z,16.23
2018-03-19T05:08:00.156Z,18.23
2018-03-19T05:10:27.746Z,16.93
2018-03-19T05:12:55.318Z,10.33
2018-03-19T05:15:22.926Z,10.70
2018-03-19T05:17:52.007Z,9.67
2018-03-19T05:20:19.748Z,12.10
2018-03-19T05:22:47.347Z,7.20
2018-03-19T05:25:17.097Z,13.40
2018-03-19T05:27:44.655Z,11.90
2018-03-19T05:30:12.234Z,13.63
2018-03-19T05:32:40.139Z,8.43
2018-03-19T05:35:07.749Z,10.50
2018-03-19T05:37:35.327Z,9.73
2018-03-19T05:40:03.316Z,13.47
2018-03-19T05:42:30.885Z,12.23
2018-03-19T05:44:58.447Z,9.27
2018-03-19T05:47:26.057Z,10.30
2018-03-19T05:49:53.640Z,9.47
2018-03-19T05:52:21.232Z,11.33
2018-03-19T05:54:48.886Z,10.20
2018-03-19T05:57:16.487Z,7.57
2018-03-19T05:59:44.069Z,11.97
2018-03-19T06:02:12.488Z,12.20
2018-03-19T06:04:40.441Z,16.20
2018-03-19T06:07:08.010Z,12.67
2018-03-19T06:09:35.744Z,12.37
2018-03-19T06:12:03.348Z,13.03
2018-03-19T06:14:31.713Z,9.33
2018-03-19T06:16:59.480Z,14.43
2018-03-19T06:19:27.426Z,16.80
2018-03-19T06:21:54.996Z,10.70
2018-03-19T06:24:25.932Z,15.03
2018-03-19T06:26:53.699Z,11.47
2018-03-19T06:29:21.286Z,8.33
2018-03-19T06:31:49.906Z,11.20
2018-03-19T06:34:17.518Z,10.80
2018-03-19T06:36:46.234Z,14.90
2018-03-19T06:39:13.805Z,16.20
2018-03-19T06:41:41.609Z,10.63
2018-03-19T06:44:09.988Z,17.93
2018-03-19T06:46:37.614Z,9.50
2018-03-19T06:49:05.334Z,16.17
2018-03-19T06:51:33.760Z,13.10
2018-03-19T06:54:01.332Z,10.00
2018-03-19T06:56:28.916Z,18.33
2018-03-19T06:58:58.644Z,16.37
2018-03-19T07:01:26.963Z,17.03
2018-03-19T07:03:54.522Z,9.50
2018-03-19T07:06:22.279Z,8.97
2018-03-19T07:08:49.822Z,11.43
2018-03-19T07:11:17.411Z,14.70
2018-03-19T07:13:45.029Z,15.73
2018-03-19T07:16:12.711Z,9.27
2018-03-19T07:18:40.298Z,12.80
2018-03-19T07:21:07.935Z,12.50
2018-03-19T07:23:35.504Z,13.40
2018-03-19T07:26:03.076Z,8.30
2018-03-19T07:28:30.947Z,15.33
2018-03-19T07:30:58.516Z,9.60
2018-03-19T07:33:26.120Z,16.13
2018-03-19T07:35:54.020Z,14.17
2018-03-19T07:38:21.595Z,15.07
2018-03-19T07:40:49.222Z,11.20
2018-03-19T07:43:17.328Z,14.13
2018-03-19T07:45:46.423Z,11.43
2018-03-19T07:48:13.998Z,14.27
2018-03-19T07:50:42.048Z,16.10
2018-03-19T07:53:09.634Z,14.40
2018-03-19T07:55:38.063Z,13.63
2018-03-19T07:58:06.151Z,12.73
2018-03-19T08:00:33.709Z,10.73
2018-03-19T08:03:01.277Z,11.43
2018-03-19T08:05:28.878Z,13.00
2018-03-19T08:07:56.493Z,8.60
2018-03-19T08:10:24.056Z,11.83
2018-03-19T08:12:52.008Z,10.40
2018-03-19T08:15:19.565Z,18.43
2018-03-19T08:17:47.125Z,13.20
2018-03-19T08:20:15.025Z,11.63
2018-03-19T08:22:42.601Z,17.50
2018-03-19T08:25:10.955Z,13.73
2018-03-19T08:27:38.671Z,10.90
2018-03-19T08:30:06.222Z,11.67
2018-03-19T08:32:33.901Z,15.27
2018-03-19T08:35:01.846Z,12.77
2018-03-19T08:37:29.416Z,14.37
2018-03-19T08:39:57.029Z,10.80
2018-03-19T08:42:24.640Z,25.70
2018-03-19T08:44:52.202Z,12.40
2018-03-19T08:47:19.791Z,15.93
2018-03-19T08:49:47.749Z,12.53
2018-03-19T08:52:15.313Z,10.73
2018-03-19T08:54:42.903Z,14.70
2018-03-19T08:57:11.724Z,12.07
2018-03-19T08:59:39.290Z,9.63
2018-03-19T09:02:06.866Z,19.00
2018-03-19T09:04:34.466Z,18.20
2018-03-19T09:07:02.797Z,12.20
2018-03-19T09:09:30.375Z,10.87
2018-03-19T09:11:58.345Z,13.80
2018-03-19T09:14:26.013Z,11.00
2018-03-19T09:16:53.768Z,11.20
2018-03-19T09:19:21.633Z,7.70
2018-03-19T09:21:49.215Z,11.43
2018-03-19T09:24:17.538Z,13.77
2018-03-19T09:26:45.394Z,16.33
2018-03-19T09:29:12.957Z,13.53
2018-03-19T09:31:40.516Z,13.10
2018-03-19T09:34:08.124Z,10.63
2018-03-19T09:36:35.681Z,9.90
2018-03-19T09:39:04.016Z,12.30
2018-03-19T09:41:31.907Z,11.00
2018-03-19T09:43:59.481Z,10.70
2018-03-19T09:46:27.044Z,10.77
2018-03-19T09:48:55.408Z,7.80
2018-03-19T09:51:23.031Z,14.57
2018-03-19T09:53:50.609Z,11.53
2018-03-19T09:56:18.578Z,7.57
2018-03-19T09:58:46.150Z,10.60
2018-03-19T10:01:13.778Z,9.93
2018-03-19T10:03:41.675Z,12.60
2018-03-19T10:06:09.228Z,13.33
2018-03-19T10:08:37.673Z,9.10
2018-03-19T10:11:05.432Z,10.27
2018-03-19T10:13:33.004Z,8.20
2018-03-19T10:16:00.564Z,8.90
2018-03-19T10:18:28.196Z,11.73
2018-03-19T10:20:56.514Z,9.90
2018-03-19T10:23:24.159Z,8.50
2018-03-19T10:25:52.160Z,9.20
2018-03-19T10:28:19.732Z,11.10
2018-03-19T10:30:47.295Z,13.07
2018-03-19T10:33:15.267Z,9.27
2018-03-19T10:35:43.590Z,15.50
2018-03-19T10:38:11.157Z,10.77
2018-03-19T10:40:38.865Z,13.27
2018-03-19T10:43:07.237Z,9.90
2018-03-19T10:45:35.630Z,14.30
2018-03-19T10:48:04.276Z,10.83
2018-03-19T10:50:31.934Z,11.53
2018-03-19T10:52:59.495Z,10.53
2018-03-19T10:55:27.471Z,10.23
2018-03-19T10:57:55.061Z,10.47
2018-03-19T11:00:23.387Z,18.70
2018-03-19T11:03:09.723Z,9.60
2018-03-19T11:05:43.820Z,9.17
2018-03-19T11:08:11.438Z,9.10
2018-03-19T11:10:39.042Z,11.40
2018-03-19T11:13:08.113Z,13.80
2018-03-19T11:15:35.732Z,8.00
2018-03-19T11:18:03.654Z,13.33
2018-03-19T11:20:31.228Z,9.60
2018-03-19T11:22:59.700Z,7.33
2018-03-19T11:25:29.105Z,7.50
2018-03-19T11:27:56.824Z,8.53
2018-03-19T11:30:24.378Z,9.10
2018-03-19T11:32:51.979Z,8.80
2018-03-19T11:35:19.531Z,8.00
2018-03-19T11:37:47.385Z,9.47
2018-03-19T11:40:14.945Z,7.83
2018-03-19T11:42:42.527Z,12.83
2018-03-19T11:45:11.014Z,6.60
2018-03-19T11:47:38.797Z,6.47
2018-03-19T11:50:07.497Z,6.60
2018-03-19T11:52:35.421Z,7.53
2018-03-19T11:55:03.002Z,9.27
2018-03-19T11:57:31.360Z,8.27
2018-03-19T11:59:59.064Z,6.87
2018-03-19T12:02:26.612Z,8.80
2018-03-19T12:04:54.251Z,9.10
2018-03-19T12:07:22.117Z,5.77
2018-03-19T12:09:49.696Z,7.73
2018-03-19T12:12:18.109Z,8.10
2018-03-19T12:14:45.746Z,5.20
2018-03-19T12:17:13.330Z,7.10
2018-03-19T12:19:40.893Z,6.90
2018-03-19T12:22:08.769Z,8.03
2018-03-19T12:24:37.121Z,8.40
2018-03-19T12:27:04.701Z,8.10
2018-03-19T12:29:32.304Z,4.73
2018-03-19T12:32:00.660Z,5.47
2018-03-19T12:34:28.254Z,8.37
2018-03-19T12:36:56.126Z,7.60
2018-03-19T12:39:23.699Z,5.20
2018-03-19T12:41:51.243Z,6.70
2018-03-19T12:44:18.840Z,4.30
2018-03-19T12:46:46.449Z,6.77
2018-03-19T12:49:14.791Z,8.77
2018-03-19T12:51:42.738Z,6.57
2018-03-19T12:54:10.383Z,6.20
2018-03-19T12:56:37.969Z,7.60
2018-03-19T12:59:05.597Z,5.10
2018-03-19T13:01:33.197Z,5.93
2018-03-19T13:04:00.772Z,6.97
2018-03-19T13:06:28.372Z,4.23
2018-03-19T13:08:56.322Z,9.50
2018-03-19T13:11:25.041Z,8.20
2018-03-19T13:13:52.617Z,8.20
2018-03-19T13:16:20.579Z,5.20
2018-03-19T13:18:48.148Z,4.40
2018-03-19T13:21:15.724Z,9.77
2018-03-19T13:23:43.339Z,5.60
2018-03-19T13:26:10.927Z,7.63
2018-03-19T13:28:38.790Z,6.57
2018-03-19T13:31:06.373Z,8.87
2018-03-19T13:33:34.755Z,7.23
2018-03-19T13:36:02.431Z,6.60
2018-03-19T13:38:30.806Z,4.80
2018-03-19T13:40:59.165Z,7.20
2018-03-19T13:43:27.490Z,7.50
2018-03-19T13:45:55.106Z,7.17
2018-03-19T13:48:22.749Z,5.60
2018-03-19T13:50:50.365Z,5.20
2018-03-19T13:53:17.947Z,4.40
2018-03-19T13:55:45.540Z,5.63
2018-03-19T13:58:13.405Z,10.60
2018-03-19T14:00:41.730Z,5.83
2018-03-19T14:03:09.311Z,5.70
2018-03-19T14:05:36.908Z,5.43
2018-03-19T14:08:05.268Z,7.20
2018-03-19T14:10:32.852Z,5.40
2018-03-19T14:13:01.275Z,5.37
2018-03-19T14:15:28.847Z,6.60
2018-03-19T14:17:56.429Z,6.30
2018-03-19T14:20:24.295Z,6.63
2018-03-19T14:22:52.622Z,6.00
2018-03-19T14:25:20.200Z,7.63
2018-03-19T14:27:47.928Z,11.20
2018-03-19T14:30:15.395Z,7.17
2018-03-19T14:32:43.019Z,4.57
2018-03-19T14:35:11.387Z,6.43
2018-03-19T14:37:38.958Z,8.83
2018-03-19T14:40:06.572Z,4.67
2018-03-19T14:42:34.156Z,6.07
2018-03-19T14:45:02.051Z,4.80
2018-03-19T14:47:30.384Z,7.10
2018-03-19T14:49:57.965Z,8.80
2018-03-19T14:52:25.837Z,5.63
2018-03-19T14:54:53.418Z,6.73
2018-03-19T14:57:21.787Z,7.03
2018-03-19T14:59:49.438Z,7.93
2018-03-19T15:02:18.274Z,7.93
2018-03-19T15:04:45.845Z,8.20
2018-03-19T15:07:13.674Z,6.90
2018-03-19T15:09:42.003Z,6.83
2018-03-19T15:12:09.579Z,7.40
2018-03-19T15:14:38.690Z,3.97
2018-03-19T15:17:07.013Z,6.30
2018-03-19T15:19:34.941Z,7.00
2018-03-19T15:22:03.315Z,6.30
2018-03-19T15:24:31.650Z,5.60
2018-03-19T15:26:59.262Z,5.57
2018-03-19T15:29:27.917Z,9.23
2018-03-19T15:31:55.499Z,6.33
2018-03-19T15:34:23.916Z,5.33
2018-03-19T15:36:51.542Z,6.83
2018-03-19T15:39:19.886Z,6.60
2018-03-19T15:41:47.453Z,6.30
2018-03-19T15:44:15.056Z,5.63
2018-03-19T15:46:42.624Z,5.43
2018-03-19T15:49:10.193Z,6.87
2018-03-19T15:51:37.786Z,7.97
2018-03-19T15:54:05.505Z,5.50
2018-03-19T15:56:33.263Z,6.27
2018-03-19T15:59:00.913Z,14.20
2018-03-19T16:01:29.348Z,5.30
2018-03-19T16:03:57.684Z,19.47
2018-03-19T16:06:25.407Z,7.60
2018-03-19T16:08:53.775Z,8.70
2018-03-19T16:11:22.142Z,11.17
2018-03-19T16:13:49.700Z,9.63
2018-03-19T16:16:17.312Z,7.17
2018-03-19T16:18:44.883Z,9.00
2018-03-19T16:21:12.476Z,6.33
2018-03-19T16:23:40.059Z,7.03
2018-03-19T16:26:08.431Z,7.17
2018-03-19T16:28:37.063Z,7.70
2018-03-19T16:31:04.640Z,8.60
2018-03-19T16:33:32.197Z,7.13
2018-03-19T16:36:00.116Z,6.37
2018-03-19T16:38:27.693Z,7.17
2018-03-19T16:40:55.302Z,6.60
2018-03-19T16:43:23.263Z,10.20
2018-03-19T16:45:50.855Z,10.00
2018-03-19T16:48:19.166Z,7.20
2018-03-19T16:50:46.765Z,11.17
2018-03-19T16:53:15.207Z,10.97
2018-03-19T16:55:42.769Z,7.83
2018-03-19T16:58:10.362Z,7.33
2018-03-19T17:00:37.930Z,6.50
2018-03-19T17:03:05.878Z,7.13
2018-03-19T17:05:33.441Z,9.60
2018-03-19T17:08:01.777Z,10.50
2018-03-19T17:10:29.670Z,8.73
2018-03-19T17:12:57.378Z,11.93
2018-03-19T17:15:25.670Z,9.53
2018-03-19T17:17:53.278Z,6.93
2018-03-19T17:20:20.838Z,7.87
2018-03-19T17:22:48.414Z,9.60
2018-03-19T17:25:16.035Z,9.40
2018-03-19T17:27:43.685Z,10.57
2018-03-19T17:30:11.244Z,8.20
2018-03-19T17:32:39.143Z,11.27
2018-03-19T17:35:06.724Z,10.37
2018-03-19T17:37:34.293Z,10.43
2018-03-19T17:40:03.076Z,11.77
2018-03-19T17:42:31.436Z,9.93
2018-03-19T17:44:58.992Z,8.33
2018-03-19T17:47:26.882Z,9.37
2018-03-19T17:49:55.422Z,7.90
2018-03-19T17:52:22.997Z,11.40
2018-03-19T17:54:52.106Z,13.83
2018-03-19T17:57:19.670Z,17.00
2018-03-19T17:59:48.307Z,9.43
2018-03-19T18:02:16.015Z,8.43
2018-03-19T18:04:44.360Z,15.10
2018-03-19T18:07:12.005Z,9.77
2018-03-19T18:09:39.606Z,14.07
2018-03-19T18:12:08.087Z,12.93
2018-03-19T18:14:35.851Z,10.30
2018-03-19T18:17:03.555Z,12.07
2018-03-19T18:19:31.132Z,14.43
2018-03-19T18:21:59.122Z,10.63
2018-03-19T18:24:26.699Z,14.40
2018-03-19T18:26:55.039Z,10.93
2018-03-19T18:29:22.651Z,16.30
2018-03-19T18:31:51.010Z,15.90
2018-03-19T18:34:18.582Z,21.03
2018-03-19T18:36:47.495Z,13.50
2018-03-19T18:39:15.072Z,12.43
2018-03-19T18:41:42.647Z,16.43
2018-03-19T18:44:10.301Z,14.60
2018-03-19T18:46:37.859Z,15.70
2018-03-19T18:49:05.426Z,11.43
2018-03-19T18:51:34.143Z,15.70
2018-03-19T18:54:02.479Z,11.40
2018-03-19T18:56:30.074Z,11.73
2018-03-19T18:58:58.695Z,11.20
2018-03-19T19:01:26.273Z,11.33
2018-03-19T19:03:53.839Z,11.33
2018-03-19T19:06:21.839Z,11.27
2018-03-19T19:08:49.401Z,10.77
2018-03-19T19:11:16.983Z,13.03
2018-03-19T19:13:45.879Z,10.37
2018-03-19T19:16:14.200Z,14.23
2018-03-19T19:18:41.779Z,12.57
2018-03-19T19:21:10.447Z,13.73
2018-03-19T19:23:38.036Z,10.60
2018-03-19T19:26:05.599Z,12.60
2018-03-19T19:28:33.274Z,10.80
2018-03-19T19:31:01.809Z,18.80
2018-03-19T19:33:29.408Z,10.63
2018-03-19T19:35:58.059Z,14.77
2018-03-19T19:38:25.675Z,16.70
2018-03-19T19:40:54.271Z,10.37
2018-03-19T19:43:21.892Z,13.13
2018-03-19T19:45:50.216Z,11.63
2018-03-19T19:48:18.099Z,11.27
2018-03-19T19:50:45.702Z,19.23
2018-03-19T19:53:14.045Z,13.10
2018-03-19T19:55:41.915Z,12.20
2018-03-19T19:58:09.508Z,11.87
2018-03-19T20:00:37.933Z,10.67
2018-03-19T20:03:05.779Z,16.33
2018-03-19T20:05:33.355Z,12.40
2018-03-19T20:08:00.930Z,12.00
2018-03-19T20:10:28.805Z,10.33
2018-03-19T20:12:56.400Z,12.23
2018-03-19T20:15:24.737Z,18.20
2018-03-19T20:17:52.366Z,13.13
2018-03-19T20:20:19.961Z,10.63
2018-03-19T20:22:47.955Z,14.80
2018-03-19T20:25:16.346Z,14.30
2018-03-19T20:27:43.952Z,15.00
2018-03-19T20:30:11.532Z,14.40
2018-03-19T20:32:40.011Z,18.43
2018-03-19T20:35:07.879Z,16.13
2018-03-19T20:37:35.453Z,13.30
2018-03-19T20:40:03.802Z,14.53
2018-03-19T20:42:31.786Z,16.77
2018-03-19T20:44:59.358Z,18.50
2018-03-19T20:47:27.739Z,16.80
2018-03-19T20:49:56.128Z,13.50
2018-03-19T20:52:24.471Z,20.93
2018-03-19T20:54:52.054Z,14.90
2018-03-19T20:57:20.695Z,15.20
2018-03-19T20:59:48.280Z,17.60
2018-03-19T21:02:16.614Z,16.50
2018-03-19T21:04:44.284Z,13.80
2018-03-19T21:07:11.916Z,14.90
2018-03-19T21:09:39.628Z,15.27
2018-03-19T21:12:07.507Z,14.17
2018-03-19T21:14:35.107Z,16.83
2018-03-19T21:17:02.662Z,16.70
2018-03-19T21:19:30.286Z,15.43
2018-03-19T21:21:57.856Z,15.17
2018-03-19T21:24:26.200Z,21.23
2018-03-19T21:26:53.839Z,16.40
2018-03-19T21:29:21.425Z,22.40
2018-03-19T21:31:49.351Z,20.93
2018-03-19T21:34:16.923Z,20.17
2018-03-19T21:36:44.498Z,23.77
2018-03-19T21:39:12.466Z,19.40
2018-03-19T21:41:40.048Z,25.47
2018-03-19T21:44:07.639Z,19.27
2018-03-19T21:46:35.679Z,24.47
2018-03-19T21:49:03.254Z,19.87
2018-03-19T21:51:31.606Z,20.70
2018-03-19T21:53:59.193Z,20.00
2018-03-19T21:56:27.566Z,22.60
2018-03-19T21:58:55.930Z,16.03
2018-03-19T22:01:23.506Z,15.73
2018-03-19T22:03:51.879Z,25.07
2018-03-19T22:06:20.215Z,15.17
2018-03-19T22:08:47.958Z,14.20
2018-03-19T22:11:15.574Z,13.17
2018-03-19T22:13:43.150Z,15.40
2018-03-19T22:16:11.511Z,12.93
2018-03-19T22:18:40.144Z,15.97
2018-03-19T22:21:07.742Z,19.63
2018-03-19T22:23:35.310Z,14.07
2018-03-19T22:26:02.909Z,15.03
2018-03-19T22:28:30.485Z,21.67
2018-03-19T22:30:58.054Z,15.73
2018-03-19T22:33:25.655Z,15.83
2018-03-19T22:35:54.000Z,26.53
2018-03-19T22:38:21.603Z,25.33
2018-03-19T22:40:49.994Z,41.50
2018-03-19T22:43:17.573Z,16.57
2018-03-19T22:45:45.167Z,18.23
2018-03-19T22:48:12.726Z,25.13
2018-03-19T22:50:40.285Z,23.23
2018-03-19T22:53:07.848Z,25.37
2018-03-19T22:55:35.479Z,29.73
2018-03-19T22:58:03.058Z,20.83
2018-03-19T23:00:30.643Z,14.57
2018-03-19T23:02:59.009Z,21.80
2018-03-19T23:05:26.880Z,15.93
2018-03-19T23:07:54.446Z,22.70
2018-03-19T23:10:23.096Z,12.50
2018-03-19T23:12:50.667Z,16.50
2018-03-19T23:15:18.267Z,15.60
2018-03-19T23:17:45.983Z,17.70
2018-03-19T23:20:13.556Z,19.00
2018-03-19T23:22:41.896Z,13.13
2018-03-19T23:25:09.490Z,13.87
2018-03-19T23:27:37.441Z,14.27
2018-03-19T23:30:05.077Z,21.30
2018-03-19T23:32:32.654Z,11.70
2018-03-19T23:35:00.276Z,18.07
2018-03-19T23:37:27.884Z,14.10
2018-03-19T23:39:56.290Z,19.03
2018-03-19T23:42:23.897Z,18.47
2018-03-19T23:44:51.466Z,14.13
2018-03-19T23:47:19.039Z,17.73
2018-03-19T23:49:46.926Z,14.67
2018-03-19T23:52:15.271Z,16.10
2018-03-19T23:54:42.836Z,15.63
2018-03-19T23:57:10.531Z,16.73
2018-03-19T23:59:38.858Z,14.00
